sensor_id;sensor_type;location;lat;lon;timestamp;pressure;altitude;pressure_sealevel;temperature;humidity
74633;BME280;63139;52.018;8.552;2023-07-13T00:00:55;100308.34;;;16.19;70.28
74633;BME280;63139;52.018;8.552;2023-07-13T00:03:23;100316.38;;;16.12;70.36
74633;BME280;63139;52.018;8.552;2023-07-13T00:05:57;100328.50;;;16.08;71.40
74633;BME280;63139;52.018;8.552;2023-07-13T00:08:29;100324.59;;;16.04;71.18
74633;BME280;63139;52.018;8.552;2023-07-13T00:10:59;100324.00;;;16.02;71.40
74633;BME280;63139;52.018;8.552;2023-07-13T00:13:27;100315.97;;;16.02;71.49
74633;BME280;63139;52.018;8.552;2023-07-13T00:15:56;100326.25;;;15.99;71.66
74633;BME280;63139;52.018;8.552;2023-07-13T00:18:25;100329.97;;;15.98;71.65
74633;BME280;63139;52.018;8.552;2023-07-13T00:20:52;100337.34;;;15.96;71.91
74633;BME280;63139;52.018;8.552;2023-07-13T00:23:20;100324.19;;;15.94;72.11
74633;BME280;63139;52.018;8.552;2023-07-13T00:25:49;100332.00;;;15.96;72.29
74633;BME280;63139;52.018;8.552;2023-07-13T00:28:18;100334.69;;;15.96;72.46
74633;BME280;63139;52.018;8.552;2023-07-13T00:30:45;100337.34;;;15.96;72.34
74633;BME280;63139;52.018;8.552;2023-07-13T00:33:13;100334.28;;;15.99;72.76
74633;BME280;63139;52.018;8.552;2023-07-13T00:35:44;100332.63;;;15.98;72.50
74633;BME280;63139;52.018;8.552;2023-07-13T00:38:12;100339.19;;;16.02;72.75
74633;BME280;63139;52.018;8.552;2023-07-13T00:40:40;100333.25;;;16.06;72.66
74633;BME280;63139;52.018;8.552;2023-07-13T00:43:11;100343.09;;;16.12;72.74
74633;BME280;63139;52.018;8.552;2023-07-13T00:46:17;100336.50;;;16.21;73.36
74633;BME280;63139;52.018;8.552;2023-07-13T00:48:47;100340.81;;;16.29;72.29
74633;BME280;63139;52.018;8.552;2023-07-13T00:51:32;100338.94;;;16.36;72.02
74633;BME280;63139;52.018;8.552;2023-07-13T00:54:07;100330.47;;;16.46;71.56
74633;BME280;63139;52.018;8.552;2023-07-13T00:56:37;100332.91;;;16.54;72.81
74633;BME280;63139;52.018;8.552;2023-07-13T00:59:07;100324.28;;;16.58;71.08
74633;BME280;63139;52.018;8.552;2023-07-13T01:01:36;100321.00;;;16.63;71.06
74633;BME280;63139;52.018;8.552;2023-07-13T01:04:04;100330.66;;;16.64;70.83
74633;BME280;63139;52.018;8.552;2023-07-13T01:06:35;100322.22;;;16.60;70.92
74633;BME280;63139;52.018;8.552;2023-07-13T01:09:03;100328.59;;;16.53;70.75
74633;BME280;63139;52.018;8.552;2023-07-13T01:11:32;100336.22;;;16.49;71.35
74633;BME280;63139;52.018;8.552;2023-07-13T01:14:02;100328.84;;;16.45;71.37
74633;BME280;63139;52.018;8.552;2023-07-13T01:16:33;100327.63;;;16.41;71.48
74633;BME280;63139;52.018;8.552;2023-07-13T01:19:03;100334.88;;;16.14;72.32
74633;BME280;63139;52.018;8.552;2023-07-13T01:21:36;100325.81;;;16.08;72.92
74633;BME280;63139;52.018;8.552;2023-07-13T01:24:09;100328.91;;;16.12;72.83
74633;BME280;63139;52.018;8.552;2023-07-13T01:26:37;100319.03;;;16.19;72.86
74633;BME280;63139;52.018;8.552;2023-07-13T01:29:06;100323.34;;;16.26;73.04
74633;BME280;63139;52.018;8.552;2023-07-13T01:31:37;100333.59;;;16.36;72.79
74633;BME280;63139;52.018;8.552;2023-07-13T01:34:04;100335.00;;;16.45;72.38
74633;BME280;63139;52.018;8.552;2023-07-13T01:36:32;100334.78;;;16.53;72.41
74633;BME280;63139;52.018;8.552;2023-07-13T01:39:02;100332.06;;;16.60;72.17
74633;BME280;63139;52.018;8.552;2023-07-13T01:41:30;100329.44;;;16.66;71.67
74633;BME280;63139;52.018;8.552;2023-07-13T01:43:58;100331.06;;;16.74;71.67
74633;BME280;63139;52.018;8.552;2023-07-13T01:46:26;100328.94;;;16.83;71.32
74633;BME280;63139;52.018;8.552;2023-07-13T01:48:54;100326.84;;;16.91;71.24
74633;BME280;63139;52.018;8.552;2023-07-13T01:51:22;100335.66;;;16.98;71.13
74633;BME280;63139;52.018;8.552;2023-07-13T01:53:50;100339.13;;;17.05;70.89
74633;BME280;63139;52.018;8.552;2023-07-13T01:56:19;100347.09;;;17.12;70.70
74633;BME280;63139;52.018;8.552;2023-07-13T01:58:47;100339.28;;;17.17;70.67
74633;BME280;63139;52.018;8.552;2023-07-13T02:01:15;100342.72;;;17.24;70.27
74633;BME280;63139;52.018;8.552;2023-07-13T02:03:43;100334.66;;;17.31;70.37
74633;BME280;63139;52.018;8.552;2023-07-13T02:06:13;100328.66;;;17.35;70.44
74633;BME280;63139;52.018;8.552;2023-07-13T02:08:41;100327.19;;;17.39;70.02
74633;BME280;63139;52.018;8.552;2023-07-13T02:11:09;100325.94;;;17.42;70.07
74633;BME280;63139;52.018;8.552;2023-07-13T02:13:38;100329.81;;;17.46;69.96
74633;BME280;63139;52.018;8.552;2023-07-13T02:16:06;100322.22;;;17.43;69.83
74633;BME280;63139;52.018;8.552;2023-07-13T02:18:34;100333.78;;;17.37;69.84
74633;BME280;63139;52.018;8.552;2023-07-13T02:21:02;100331.38;;;17.29;69.97
74633;BME280;63139;52.018;8.552;2023-07-13T02:23:30;100339.06;;;17.19;70.17
74633;BME280;63139;52.018;8.552;2023-07-13T02:25:59;100329.84;;;17.08;70.54
74633;BME280;63139;52.018;8.552;2023-07-13T02:28:29;100331.34;;;16.97;70.79
74633;BME280;63139;52.018;8.552;2023-07-13T02:31:06;100333.56;;;17.07;70.99
74633;BME280;63139;52.018;8.552;2023-07-13T02:33:34;100339.34;;;17.04;70.35
74633;BME280;63139;52.018;8.552;2023-07-13T02:36:02;100342.88;;;16.91;70.53
74633;BME280;63139;52.018;8.552;2023-07-13T02:38:32;100335.97;;;16.77;71.01
74633;BME280;63139;52.018;8.552;2023-07-13T02:41:01;100328.81;;;16.64;71.32
74633;BME280;63139;52.018;8.552;2023-07-13T02:43:30;100331.28;;;16.53;71.65
74633;BME280;63139;52.018;8.552;2023-07-13T02:45:58;100335.84;;;16.39;72.04
74633;BME280;63139;52.018;8.552;2023-07-13T02:48:32;100333.00;;;16.27;72.49
74633;BME280;63139;52.018;8.552;2023-07-13T02:50:59;100334.25;;;16.18;72.64
74633;BME280;63139;52.018;8.552;2023-07-13T02:53:27;100332.81;;;16.09;73.26
74633;BME280;63139;52.018;8.552;2023-07-13T02:55:55;100333.84;;;16.02;73.24
74633;BME280;63139;52.018;8.552;2023-07-13T02:58:23;100337.97;;;15.98;73.79
74633;BME280;63139;52.018;8.552;2023-07-13T03:00:51;100341.66;;;15.97;73.74
74633;BME280;63139;52.018;8.552;2023-07-13T03:03:19;100337.97;;;15.91;73.89
74633;BME280;63139;52.018;8.552;2023-07-13T03:05:58;100344.34;;;15.83;75.12
74633;BME280;63139;52.018;8.552;2023-07-13T03:08:31;100343.34;;;15.78;74.39
74633;BME280;63139;52.018;8.552;2023-07-13T03:11:01;100339.00;;;15.70;74.50
74633;BME280;63139;52.018;8.552;2023-07-13T03:13:33;100340.84;;;15.70;75.04
74633;BME280;63139;52.018;8.552;2023-07-13T03:16:03;100343.28;;;15.65;75.42
74633;BME280;63139;52.018;8.552;2023-07-13T03:18:33;100334.91;;;15.61;75.39
74633;BME280;63139;52.018;8.552;2023-07-13T03:21:05;100345.78;;;15.60;75.50
74633;BME280;63139;52.018;8.552;2023-07-13T03:23:33;100344.28;;;15.44;75.86
74633;BME280;63139;52.018;8.552;2023-07-13T03:26:03;100349.97;;;15.28;76.47
74633;BME280;63139;52.018;8.552;2023-07-13T03:28:32;100352.25;;;15.24;77.06
74633;BME280;63139;52.018;8.552;2023-07-13T03:31:02;100354.56;;;15.47;76.54
74633;BME280;63139;52.018;8.552;2023-07-13T03:33:31;100353.09;;;15.51;76.54
74633;BME280;63139;52.018;8.552;2023-07-13T03:36:00;100351.28;;;15.51;76.55
74633;BME280;63139;52.018;8.552;2023-07-13T03:38:30;100347.78;;;15.51;76.88
74633;BME280;63139;52.018;8.552;2023-07-13T03:40:58;100350.09;;;15.54;76.42
74633;BME280;63139;52.018;8.552;2023-07-13T03:43:27;100354.59;;;15.53;76.54
74633;BME280;63139;52.018;8.552;2023-07-13T03:45:55;100358.09;;;15.54;76.60
74633;BME280;63139;52.018;8.552;2023-07-13T03:48:23;100360.75;;;15.61;76.53
74633;BME280;63139;52.018;8.552;2023-07-13T03:50:51;100360.34;;;15.64;76.43
74633;BME280;63139;52.018;8.552;2023-07-13T03:53:19;100361.59;;;15.68;76.74
74633;BME280;63139;52.018;8.552;2023-07-13T03:55:48;100361.78;;;15.73;76.41
74633;BME280;63139;52.018;8.552;2023-07-13T03:58:29;100367.56;;;15.76;76.85
74633;BME280;63139;52.018;8.552;2023-07-13T04:01:04;100361.78;;;15.86;75.67
74633;BME280;63139;52.018;8.552;2023-07-13T04:03:33;100365.28;;;15.86;75.59
74633;BME280;63139;52.018;8.552;2023-07-13T04:06:02;100371.44;;;15.93;75.28
74633;BME280;63139;52.018;8.552;2023-07-13T04:08:32;100375.34;;;15.98;75.01
74633;BME280;63139;52.018;8.552;2023-07-13T04:11:04;100377.41;;;16.02;75.07
74633;BME280;63139;52.018;8.552;2023-07-13T04:13:32;100379.88;;;16.10;74.32
74633;BME280;63139;52.018;8.552;2023-07-13T04:16:00;100373.91;;;16.21;73.82
74633;BME280;63139;52.018;8.552;2023-07-13T04:18:28;100372.03;;;16.35;73.57
74633;BME280;63139;52.018;8.552;2023-07-13T04:20:55;100380.44;;;16.45;72.87
74633;BME280;63139;52.018;8.552;2023-07-13T04:23:23;100374.69;;;16.48;72.72
74633;BME280;63139;52.018;8.552;2023-07-13T04:25:52;100387.97;;;16.88;71.03
74633;BME280;63139;52.018;8.552;2023-07-13T04:28:23;100388.22;;;16.80;71.13
74633;BME280;63139;52.018;8.552;2023-07-13T04:30:52;100389.63;;;16.89;70.93
74633;BME280;63139;52.018;8.552;2023-07-13T04:33:19;100397.81;;;16.94;70.58
74633;BME280;63139;52.018;8.552;2023-07-13T04:35:49;100397.78;;;17.00;70.17
74633;BME280;63139;52.018;8.552;2023-07-13T04:38:24;100394.91;;;17.02;69.75
74633;BME280;63139;52.018;8.552;2023-07-13T04:40:55;100400.66;;;17.05;69.42
74633;BME280;63139;52.018;8.552;2023-07-13T04:43:24;100395.53;;;17.04;69.37
74633;BME280;63139;52.018;8.552;2023-07-13T04:45:54;100396.78;;;17.01;69.12
74633;BME280;63139;52.018;8.552;2023-07-13T04:48:22;100395.53;;;17.04;68.88
74633;BME280;63139;52.018;8.552;2023-07-13T04:50:54;100391.59;;;17.06;68.83
74633;BME280;63139;52.018;8.552;2023-07-13T04:53:24;100393.41;;;17.13;68.64
74633;BME280;63139;52.018;8.552;2023-07-13T04:55:52;100396.09;;;17.13;68.37
74633;BME280;63139;52.018;8.552;2023-07-13T04:58:19;100392.78;;;17.17;68.21
74633;BME280;63139;52.018;8.552;2023-07-13T05:00:49;100393.38;;;17.19;68.01
74633;BME280;63139;52.018;8.552;2023-07-13T05:03:17;100389.19;;;17.36;67.46
74633;BME280;63139;52.018;8.552;2023-07-13T05:05:54;100399.94;;;17.30;67.55
74633;BME280;63139;52.018;8.552;2023-07-13T05:08:23;100399.50;;;17.33;67.45
74633;BME280;63139;52.018;8.552;2023-07-13T05:10:51;100395.34;;;17.37;67.00
74633;BME280;63139;52.018;8.552;2023-07-13T05:13:19;100399.75;;;17.56;66.57
74633;BME280;63139;52.018;8.552;2023-07-13T05:15:55;100395.78;;;17.72;65.30
74633;BME280;63139;52.018;8.552;2023-07-13T05:18:23;100397.06;;;17.69;64.90
74633;BME280;63139;52.018;8.552;2023-07-13T05:20:57;100406.75;;;17.95;65.23
74633;BME280;63139;52.018;8.552;2023-07-13T05:23:25;100411.78;;;18.59;64.07
74633;BME280;63139;52.018;8.552;2023-07-13T05:25:53;100405.59;;;18.95;63.14
74633;BME280;63139;52.018;8.552;2023-07-13T05:28:21;100409.88;;;19.33;62.54
74633;BME280;63139;52.018;8.552;2023-07-13T05:30:51;100410.47;;;19.65;61.44
74633;BME280;63139;52.018;8.552;2023-07-13T05:33:20;100410.69;;;19.93;60.33
74633;BME280;63139;52.018;8.552;2023-07-13T05:35:48;100408.59;;;20.19;59.75
74633;BME280;63139;52.018;8.552;2023-07-13T05:38:16;100411.09;;;20.43;58.98
74633;BME280;63139;52.018;8.552;2023-07-13T05:40:44;100408.97;;;20.69;58.13
74633;BME280;63139;52.018;8.552;2023-07-13T05:43:12;100413.78;;;20.55;58.44
74633;BME280;63139;52.018;8.552;2023-07-13T05:45:41;100418.56;;;20.65;58.22
74633;BME280;63139;52.018;8.552;2023-07-13T05:48:10;100427.94;;;20.74;58.02
74633;BME280;63139;52.018;8.552;2023-07-13T05:50:38;100426.38;;;20.78;57.03
74633;BME280;63139;52.018;8.552;2023-07-13T05:53:06;100418.31;;;20.78;57.25
74633;BME280;63139;52.018;8.552;2023-07-13T05:55:34;100422.41;;;20.80;56.85
74633;BME280;63139;52.018;8.552;2023-07-13T05:58:01;100424.50;;;20.78;56.32
74633;BME280;63139;52.018;8.552;2023-07-13T06:00:29;100423.38;;;20.74;55.60
74633;BME280;63139;52.018;8.552;2023-07-13T06:02:57;100430.69;;;20.90;55.83
74633;BME280;63139;52.018;8.552;2023-07-13T06:05:26;100431.63;;;20.96;55.50
74633;BME280;63139;52.018;8.552;2023-07-13T06:07:55;100435.03;;;20.68;56.01
74633;BME280;63139;52.018;8.552;2023-07-13T06:10:23;100435.88;;;20.57;56.65
74633;BME280;63139;52.018;8.552;2023-07-13T06:12:51;100427.00;;;20.45;56.61
74633;BME280;63139;52.018;8.552;2023-07-13T06:15:19;100429.56;;;20.40;56.89
74633;BME280;63139;52.018;8.552;2023-07-13T06:17:46;100437.28;;;20.36;57.06
74633;BME280;63139;52.018;8.552;2023-07-13T06:20:14;100430.59;;;20.27;57.11
74633;BME280;63139;52.018;8.552;2023-07-13T06:22:43;100429.50;;;20.16;57.31
74633;BME280;63139;52.018;8.552;2023-07-13T06:25:11;100429.28;;;20.06;57.64
74633;BME280;63139;52.018;8.552;2023-07-13T06:27:39;100426.94;;;19.98;58.08
74633;BME280;63139;52.018;8.552;2023-07-13T06:30:08;100440.31;;;19.87;58.13
74633;BME280;63139;52.018;8.552;2023-07-13T06:32:36;100434.72;;;19.88;58.56
74633;BME280;63139;52.018;8.552;2023-07-13T06:35:07;100452.16;;;19.97;58.62
74633;BME280;63139;52.018;8.552;2023-07-13T06:37:35;100453.09;;;20.03;58.50
74633;BME280;63139;52.018;8.552;2023-07-13T06:40:05;100457.31;;;19.99;58.80
74633;BME280;63139;52.018;8.552;2023-07-13T06:42:33;100454.41;;;20.12;58.67
74633;BME280;63139;52.018;8.552;2023-07-13T06:45:01;100463.25;;;19.89;59.26
74633;BME280;63139;52.018;8.552;2023-07-13T06:47:29;100458.06;;;19.76;59.76
74633;BME280;63139;52.018;8.552;2023-07-13T06:50:00;100454.75;;;19.62;60.30
74633;BME280;63139;52.018;8.552;2023-07-13T06:52:27;100458.25;;;19.63;60.78
74633;BME280;63139;52.018;8.552;2023-07-13T06:54:55;100459.16;;;19.57;61.00
74633;BME280;63139;52.018;8.552;2023-07-13T06:57:24;100462.09;;;19.55;61.16
74633;BME280;63139;52.018;8.552;2023-07-13T06:59:53;100455.69;;;19.68;60.45
74633;BME280;63139;52.018;8.552;2023-07-13T07:02:20;100455.34;;;19.46;61.33
74633;BME280;63139;52.018;8.552;2023-07-13T07:04:48;100462.06;;;19.37;61.54
74633;BME280;63139;52.018;8.552;2023-07-13T07:07:16;100466.47;;;19.31;61.80
74633;BME280;63139;52.018;8.552;2023-07-13T07:09:44;100477.38;;;19.18;62.54
74633;BME280;63139;52.018;8.552;2023-07-13T07:12:12;100476.69;;;19.23;62.26
74633;BME280;63139;52.018;8.552;2023-07-13T07:14:42;100472.84;;;19.19;62.43
74633;BME280;63139;52.018;8.552;2023-07-13T07:17:10;100477.47;;;19.12;62.88
74633;BME280;63139;52.018;8.552;2023-07-13T07:19:38;100473.06;;;19.17;62.58
74633;BME280;63139;52.018;8.552;2023-07-13T07:22:06;100466.41;;;19.20;62.96
74633;BME280;63139;52.018;8.552;2023-07-13T07:24:34;100472.00;;;19.18;63.12
74633;BME280;63139;52.018;8.552;2023-07-13T07:27:01;100472.59;;;19.20;63.11
74633;BME280;63139;52.018;8.552;2023-07-13T07:29:32;100471.03;;;19.31;62.94
74633;BME280;63139;52.018;8.552;2023-07-13T07:32:05;100476.69;;;19.59;62.43
74633;BME280;63139;52.018;8.552;2023-07-13T07:34:43;100480.41;;;19.58;62.05
74633;BME280;63139;52.018;8.552;2023-07-13T07:37:12;100476.91;;;19.39;62.38
74633;BME280;63139;52.018;8.552;2023-07-13T07:39:43;100474.31;;;19.33;62.89
74633;BME280;63139;52.018;8.552;2023-07-13T07:42:31;100479.47;;;19.53;62.50
74633;BME280;63139;52.018;8.552;2023-07-13T07:44:59;100475.94;;;19.70;61.79
74633;BME280;63139;52.018;8.552;2023-07-13T07:47:29;100471.53;;;19.88;61.62
74633;BME280;63139;52.018;8.552;2023-07-13T07:49:57;100466.59;;;20.26;60.99
74633;BME280;63139;52.018;8.552;2023-07-13T07:52:25;100464.44;;;20.58;60.23
74633;BME280;63139;52.018;8.552;2023-07-13T07:54:53;100470.75;;;20.87;59.31
74633;BME280;63139;52.018;8.552;2023-07-13T07:57:23;100468.84;;;20.99;59.08
74633;BME280;63139;52.018;8.552;2023-07-13T07:59:54;100470.03;;;21.03;59.00
74633;BME280;63139;52.018;8.552;2023-07-13T08:02:25;100470.00;;;21.26;58.31
74633;BME280;63139;52.018;8.552;2023-07-13T08:04:57;100474.91;;;21.29;57.88
74633;BME280;63139;52.018;8.552;2023-07-13T08:07:30;100470.25;;;21.53;57.55
74633;BME280;63139;52.018;8.552;2023-07-13T08:09:59;100470.09;;;21.88;56.24
74633;BME280;63139;52.018;8.552;2023-07-13T08:12:27;100465.50;;;22.00;56.68
74633;BME280;63139;52.018;8.552;2023-07-13T08:14:58;100473.28;;;22.30;56.46
74633;BME280;63139;52.018;8.552;2023-07-13T08:17:27;100474.31;;;22.63;54.90
74633;BME280;63139;52.018;8.552;2023-07-13T08:19:55;100480.78;;;22.78;54.49
74633;BME280;63139;52.018;8.552;2023-07-13T08:22:24;100480.44;;;22.75;54.80
74633;BME280;63139;52.018;8.552;2023-07-13T08:24:52;100476.84;;;22.86;54.54
74633;BME280;63139;52.018;8.552;2023-07-13T08:27:23;100479.78;;;22.68;53.18
74633;BME280;63139;52.018;8.552;2023-07-13T08:29:52;100482.53;;;22.51;53.20
74633;BME280;63139;52.018;8.552;2023-07-13T08:32:22;100487.75;;;22.41;53.75
74633;BME280;63139;52.018;8.552;2023-07-13T08:34:50;100481.47;;;22.52;53.78
74633;BME280;63139;52.018;8.552;2023-07-13T08:37:19;100483.88;;;22.70;52.85
74633;BME280;63139;52.018;8.552;2023-07-13T08:39:48;100488.56;;;22.75;52.90
74633;BME280;63139;52.018;8.552;2023-07-13T08:42:37;100489.75;;;23.01;52.41
74633;BME280;63139;52.018;8.552;2023-07-13T08:45:13;100486.03;;;22.52;52.45
74633;BME280;63139;52.018;8.552;2023-07-13T08:47:47;100488.56;;;22.75;51.95
74633;BME280;63139;52.018;8.552;2023-07-13T08:50:19;100481.34;;;22.64;51.88
74633;BME280;63139;52.018;8.552;2023-07-13T08:52:50;100484.81;;;22.59;53.06
74633;BME280;63139;52.018;8.552;2023-07-13T08:55:22;100479.88;;;22.39;53.34
74633;BME280;63139;52.018;8.552;2023-07-13T08:57:54;100476.72;;;22.26;53.06
74633;BME280;63139;52.018;8.552;2023-07-13T09:00:25;100485.03;;;22.24;53.49
74633;BME280;63139;52.018;8.552;2023-07-13T09:03:00;100481.88;;;22.44;52.56
74633;BME280;63139;52.018;8.552;2023-07-13T09:05:30;100479.66;;;22.74;52.04
74633;BME280;63139;52.018;8.552;2023-07-13T09:08:08;100482.19;;;22.81;52.18
74633;BME280;63139;52.018;8.552;2023-07-13T09:10:44;100478.88;;;22.96;51.38
74633;BME280;63139;52.018;8.552;2023-07-13T09:13:22;100479.97;;;22.78;50.54
74633;BME280;63139;52.018;8.552;2023-07-13T09:15:55;100483.81;;;22.82;51.14
74633;BME280;63139;52.018;8.552;2023-07-13T09:18:31;100475.91;;;22.97;50.54
74633;BME280;63139;52.018;8.552;2023-07-13T09:21:03;100487.00;;;23.17;50.32
74633;BME280;63139;52.018;8.552;2023-07-13T09:23:34;100481.56;;;23.56;49.60
74633;BME280;63139;52.018;8.552;2023-07-13T09:26:11;100482.81;;;23.48;49.53
74633;BME280;63139;52.018;8.552;2023-07-13T09:28:43;100493.53;;;23.43;49.28
74633;BME280;63139;52.018;8.552;2023-07-13T09:31:14;100485.88;;;23.57;47.54
74633;BME280;63139;52.018;8.552;2023-07-13T09:33:43;100478.91;;;23.39;49.60
74633;BME280;63139;52.018;8.552;2023-07-13T09:36:20;100474.69;;;23.70;48.53
74633;BME280;63139;52.018;8.552;2023-07-13T09:38:48;100476.31;;;23.98;46.64
74633;BME280;63139;52.018;8.552;2023-07-13T09:41:25;100493.50;;;23.87;46.98
74633;BME280;63139;52.018;8.552;2023-07-13T09:44:07;100491.66;;;23.66;47.51
74633;BME280;63139;52.018;8.552;2023-07-13T09:46:36;100488.25;;;23.75;48.09
74633;BME280;63139;52.018;8.552;2023-07-13T09:49:05;100481.28;;;24.11;47.63
74633;BME280;63139;52.018;8.552;2023-07-13T09:51:32;100478.34;;;24.45;47.28
74633;BME280;63139;52.018;8.552;2023-07-13T09:54:01;100478.06;;;24.46;46.55
74633;BME280;63139;52.018;8.552;2023-07-13T09:56:31;100482.03;;;24.65;46.92
74633;BME280;63139;52.018;8.552;2023-07-13T09:58:59;100489.25;;;24.55;47.10
74633;BME280;63139;52.018;8.552;2023-07-13T10:01:35;100488.63;;;24.16;46.40
74633;BME280;63139;52.018;8.552;2023-07-13T10:04:11;100486.56;;;23.96;46.74
74633;BME280;63139;52.018;8.552;2023-07-13T10:06:40;100489.19;;;23.86;48.13
74633;BME280;63139;52.018;8.552;2023-07-13T10:09:09;100492.63;;;23.81;47.22
74633;BME280;63139;52.018;8.552;2023-07-13T10:11:40;100478.47;;;24.01;47.17
74633;BME280;63139;52.018;8.552;2023-07-13T10:14:14;100491.50;;;24.04;47.09
74633;BME280;63139;52.018;8.552;2023-07-13T10:19:14;100495.28;;;23.76;47.40
74633;BME280;63139;52.018;8.552;2023-07-13T10:21:49;100491.19;;;23.74;46.72
74633;BME280;63139;52.018;8.552;2023-07-13T10:24:21;100499.97;;;24.13;46.30
74633;BME280;63139;52.018;8.552;2023-07-13T10:26:55;100499.91;;;24.29;45.08
74633;BME280;63139;52.018;8.552;2023-07-13T10:29:26;100499.66;;;24.36;45.86
74633;BME280;63139;52.018;8.552;2023-07-13T10:31:55;100495.13;;;24.47;45.15
74633;BME280;63139;52.018;8.552;2023-07-13T10:34:24;100498.84;;;24.72;44.94
74633;BME280;63139;52.018;8.552;2023-07-13T10:36:52;100488.69;;;24.90;43.39
74633;BME280;63139;52.018;8.552;2023-07-13T10:39:22;100494.31;;;25.25;43.24
74633;BME280;63139;52.018;8.552;2023-07-13T10:41:57;100497.78;;;25.21;42.66
74633;BME280;63139;52.018;8.552;2023-07-13T10:44:28;100491.56;;;25.20;43.62
74633;BME280;63139;52.018;8.552;2023-07-13T10:46:59;100494.41;;;24.93;44.28
74633;BME280;63139;52.018;8.552;2023-07-13T10:49:29;100498.50;;;25.01;44.12
74633;BME280;63139;52.018;8.552;2023-07-13T10:51:58;100500.72;;;25.09;44.44
74633;BME280;63139;52.018;8.552;2023-07-13T10:54:27;100498.34;;;25.23;42.72
74633;BME280;63139;52.018;8.552;2023-07-13T10:57:15;100504.91;;;25.37;42.12
74633;BME280;63139;52.018;8.552;2023-07-13T10:59:46;100502.25;;;25.47;42.24
74633;BME280;63139;52.018;8.552;2023-07-13T11:02:22;100502.34;;;25.67;42.50
74633;BME280;63139;52.018;8.552;2023-07-13T11:04:52;100505.88;;;25.73;42.54
74633;BME280;63139;52.018;8.552;2023-07-13T11:07:22;100498.28;;;25.80;42.72
74633;BME280;63139;52.018;8.552;2023-07-13T11:09:51;100510.56;;;25.93;42.86
74633;BME280;63139;52.018;8.552;2023-07-13T11:15:12;100513.84;;;26.15;41.75
74633;BME280;63139;52.018;8.552;2023-07-13T11:17:51;100505.41;;;26.11;40.26
74633;BME280;63139;52.018;8.552;2023-07-13T11:20:37;100501.63;;;26.07;42.29
74633;BME280;63139;52.018;8.552;2023-07-13T11:23:29;100504.28;;;25.87;42.25
74633;BME280;63139;52.018;8.552;2023-07-13T11:25:58;100499.56;;;25.52;41.81
74633;BME280;63139;52.018;8.552;2023-07-13T11:28:30;100496.41;;;25.75;41.56
74633;BME280;63139;52.018;8.552;2023-07-13T11:31:12;100497.44;;;25.59;41.89
74633;BME280;63139;52.018;8.552;2023-07-13T11:33:53;100498.03;;;25.76;40.78
74633;BME280;63139;52.018;8.552;2023-07-13T11:36:23;100505.38;;;25.86;42.38
74633;BME280;63139;52.018;8.552;2023-07-13T11:38:59;100496.41;;;25.75;41.64
74633;BME280;63139;52.018;8.552;2023-07-13T11:41:30;100500.44;;;25.63;42.52
74633;BME280;63139;52.018;8.552;2023-07-13T11:44:10;100496.41;;;25.80;41.18
74633;BME280;63139;52.018;8.552;2023-07-13T11:46:38;100483.88;;;25.64;41.99
74633;BME280;63139;52.018;8.552;2023-07-13T11:49:15;100491.22;;;25.74;42.04
74633;BME280;63139;52.018;8.552;2023-07-13T11:51:44;100498.59;;;25.78;41.27
74633;BME280;63139;52.018;8.552;2023-07-13T11:54:23;100499.63;;;25.72;40.86
74633;BME280;63139;52.018;8.552;2023-07-13T11:56:53;100499.97;;;26.06;41.67
74633;BME280;63139;52.018;8.552;2023-07-13T11:59:23;100491.81;;;25.91;42.01
74633;BME280;63139;52.018;8.552;2023-07-13T12:01:53;100500.19;;;25.69;42.31
74633;BME280;63139;52.018;8.552;2023-07-13T12:04:24;100501.19;;;25.53;41.21
74633;BME280;63139;52.018;8.552;2023-07-13T12:06:56;100509.06;;;25.55;41.48
74633;BME280;63139;52.018;8.552;2023-07-13T12:09:27;100497.91;;;25.41;41.89
74633;BME280;63139;52.018;8.552;2023-07-13T12:11:56;100491.91;;;25.39;42.08
74633;BME280;63139;52.018;8.552;2023-07-13T12:14:26;100481.56;;;25.26;41.76
74633;BME280;63139;52.018;8.552;2023-07-13T12:16:55;100489.38;;;25.17;42.53
74633;BME280;63139;52.018;8.552;2023-07-13T12:19:26;100501.00;;;25.12;42.56
74633;BME280;63139;52.018;8.552;2023-07-13T12:21:56;100486.38;;;25.13;41.59
74633;BME280;63139;52.018;8.552;2023-07-13T12:24:25;100494.19;;;25.05;41.63
74633;BME280;63139;52.018;8.552;2023-07-13T12:26:58;100486.59;;;25.02;41.83
74633;BME280;63139;52.018;8.552;2023-07-13T12:29:28;100493.84;;;24.91;41.50
74633;BME280;63139;52.018;8.552;2023-07-13T12:31:56;100498.69;;;24.89;41.88
74633;BME280;63139;52.018;8.552;2023-07-13T12:34:26;100505.06;;;25.10;40.95
74633;BME280;63139;52.018;8.552;2023-07-13T12:36:55;100503.44;;;25.14;41.25
74633;BME280;63139;52.018;8.552;2023-07-13T12:39:28;100501.66;;;24.88;41.00
74633;BME280;63139;52.018;8.552;2023-07-13T12:42:17;100500.19;;;24.70;41.77
74633;BME280;63139;52.018;8.552;2023-07-13T12:44:48;100501.66;;;24.88;41.43
74633;BME280;63139;52.018;8.552;2023-07-13T12:47:16;100497.28;;;24.82;42.39
74633;BME280;63139;52.018;8.552;2023-07-13T12:49:50;100501.97;;;24.91;42.06
74633;BME280;63139;52.018;8.552;2023-07-13T12:52:22;100500.91;;;24.92;40.94
74633;BME280;63139;52.018;8.552;2023-07-13T12:54:54;100496.84;;;24.95;40.64
74633;BME280;63139;52.018;8.552;2023-07-13T12:57:31;100496.75;;;24.80;40.30
74633;BME280;63139;52.018;8.552;2023-07-13T13:00:03;100500.59;;;24.89;39.67
74633;BME280;63139;52.018;8.552;2023-07-13T13:02:33;100491.25;;;25.11;39.86
74633;BME280;63139;52.018;8.552;2023-07-13T13:05:02;100494.38;;;25.40;39.62
74633;BME280;63139;52.018;8.552;2023-07-13T13:07:31;100499.28;;;25.48;38.81
74633;BME280;63139;52.018;8.552;2023-07-13T13:09:59;100488.47;;;25.59;39.08
74633;BME280;63139;52.018;8.552;2023-07-13T13:12:26;100495.59;;;25.75;38.97